Terminal Aerodrome Forecast
Issued by NWS Twin Cities, MN

Home | Current Version | Previous Version | Graphics & Text | Print | Product List | Glossary On
Versions: 1 2 3 4 5 6 7 8 9 10 11 12 13 14 15 16 17 18 19
000
FTUS43 KMPX 240537
TAFSTC
TAF
KSTC 240537Z 2406/2506 15008KT P6SM OVC015
     FM241600 14012G18KT P6SM SCT020 BKN150
     FM250000 14010KT 6SM -RASN BKN025 OVC050
     FM250200 14009KT 2SM -SN BR OVC010=

USA.gov is the U.S. government's official web portal to all federal, state and local government web resources and services.